首页
METAR-TAF:

METAR-TAF

机场 :

肯尼思·卡翁达国际机场

路沙卡, 赞比亚

纬度: 15-19-51S, 经度: 028-27-09E, 海拔: 1152米

当前天气观测

该预报发布于11小时和42分钟前的11:00 UTC
风速17节,风向
温度 21°C
湿度 38%
气压 1026 hPa
能见度10公里或以上
多云层高于3500英尺

METAR: FLKK 251100Z 10017KT 9999 BKN035 21/06 Q1026 NOSIG

时间: 00:42 (22:42 UTC)

预报

该预报发布于12小时和42分钟前的10:00 UTC
预报有效从25日的 12点(UTC)到 26日的 18点(UTC)
风速5节,风向,有时为15节阵风
能见度10公里或以上
多云层高于4000英尺
从 25日的 1600点(UTC)
风速10节,风向东南
能见度10公里或以上
1500米以下无云,无积雨云
成为
从 26日的 03点(UTC)到 26日的 05点(UTC)
风速10节,风向
成为
从 26日的 06点(UTC)到 26日的 08点(UTC)
风速5节,风向东南,有时为15节阵风
散云层高于1500英尺

TAF: FLKK 251000Z 2512/2618 09005G15KT 9999 BKN040 FM251600 14010KT CAVOK BECMG 2603/2605 09010KT BECMG 2606/2608 14005G15KT SCT015

超过4000个机场的气象观测和天气预报(METAR&TAF报告)。

可查询的气象台以黄色和红色小点在地图上表示。

将鼠标移到小点上方,可查看气象台名称。

然后点击查看天气观测和预报。

如需切换地图:点击带黑十字的绿色按钮放大地图;点击带横线的绿色按钮缩小地图;或者点击绿色箭头查看邻近地区的地图。


METAR-TAF: